sensor_id;sensor_type;location;lat;lon;timestamp;temperature;humidity
20773;DHT22;10546;50.674;4.616;2022-08-03T00:00:40;22.10;99.90
20773;DHT22;10546;50.674;4.616;2022-08-03T00:03:06;22.10;99.90
20773;DHT22;10546;50.674;4.616;2022-08-03T00:05:32;22.10;99.90
20773;DHT22;10546;50.674;4.616;2022-08-03T00:07:59;22.10;99.90
20773;DHT22;10546;50.674;4.616;2022-08-03T00:10:24;22.00;99.90
20773;DHT22;10546;50.674;4.616;2022-08-03T00:12:51;22.00;99.90
20773;DHT22;10546;50.674;4.616;2022-08-03T00:15:17;22.00;99.90
20773;DHT22;10546;50.674;4.616;2022-08-03T00:17:43;21.90;99.90
20773;DHT22;10546;50.674;4.616;2022-08-03T00:20:09;21.90;99.90
20773;DHT22;10546;50.674;4.616;2022-08-03T00:22:35;21.80;99.90
20773;DHT22;10546;50.674;4.616;2022-08-03T00:25:01;21.80;99.90
20773;DHT22;10546;50.674;4.616;2022-08-03T00:27:26;21.80;99.90
20773;DHT22;10546;50.674;4.616;2022-08-03T00:29:52;21.70;99.90
20773;DHT22;10546;50.674;4.616;2022-08-03T00:32:17;21.70;99.90
20773;DHT22;10546;50.674;4.616;2022-08-03T00:34:43;21.60;99.90
20773;DHT22;10546;50.674;4.616;2022-08-03T00:37:09;21.60;99.90
20773;DHT22;10546;50.674;4.616;2022-08-03T00:39:34;21.70;99.90
20773;DHT22;10546;50.674;4.616;2022-08-03T00:42:03;21.60;99.90
20773;DHT22;10546;50.674;4.616;2022-08-03T00:44:29;21.60;99.90
20773;DHT22;10546;50.674;4.616;2022-08-03T00:46:55;21.50;99.90
20773;DHT22;10546;50.674;4.616;2022-08-03T00:49:21;21.40;99.90
20773;DHT22;10546;50.674;4.616;2022-08-03T00:51:47;21.30;99.90
20773;DHT22;10546;50.674;4.616;2022-08-03T00:54:13;21.30;99.90
20773;DHT22;10546;50.674;4.616;2022-08-03T00:56:40;21.20;99.90
20773;DHT22;10546;50.674;4.616;2022-08-03T00:59:06;21.20;99.90
20773;DHT22;10546;50.674;4.616;2022-08-03T01:01:31;21.20;99.90
20773;DHT22;10546;50.674;4.616;2022-08-03T01:03:57;21.20;99.90
20773;DHT22;10546;50.674;4.616;2022-08-03T01:09:02;21.20;99.90
20773;DHT22;10546;50.674;4.616;2022-08-03T01:11:49;21.10;99.90
20773;DHT22;10546;50.674;4.616;2022-08-03T01:14:29;21.20;99.90
20773;DHT22;10546;50.674;4.616;2022-08-03T01:17:00;21.20;99.90
20773;DHT22;10546;50.674;4.616;2022-08-03T01:19:45;21.10;99.90
20773;DHT22;10546;50.674;4.616;2022-08-03T01:22:28;21.10;99.90
20773;DHT22;10546;50.674;4.616;2022-08-03T01:28:28;21.00;99.90
20773;DHT22;10546;50.674;4.616;2022-08-03T01:31:01;20.90;99.90
20773;DHT22;10546;50.674;4.616;2022-08-03T01:33:35;20.80;99.90
20773;DHT22;10546;50.674;4.616;2022-08-03T01:36:07;20.80;99.90
20773;DHT22;10546;50.674;4.616;2022-08-03T01:39:00;20.80;99.90
20773;DHT22;10546;50.674;4.616;2022-08-03T01:41:41;20.90;99.90
20773;DHT22;10546;50.674;4.616;2022-08-03T01:44:11;20.90;99.90
20773;DHT22;10546;50.674;4.616;2022-08-03T01:46:38;20.80;99.90
20773;DHT22;10546;50.674;4.616;2022-08-03T01:49:07;20.80;99.90
20773;DHT22;10546;50.674;4.616;2022-08-03T01:51:36;20.80;99.90
20773;DHT22;10546;50.674;4.616;2022-08-03T01:54:03;20.80;99.90
20773;DHT22;10546;50.674;4.616;2022-08-03T01:56:30;20.80;99.90
20773;DHT22;10546;50.674;4.616;2022-08-03T01:58:57;20.80;99.90
20773;DHT22;10546;50.674;4.616;2022-08-03T02:01:26;20.80;99.90
20773;DHT22;10546;50.674;4.616;2022-08-03T02:03:53;20.80;99.90
20773;DHT22;10546;50.674;4.616;2022-08-03T02:06:21;20.70;99.90
20773;DHT22;10546;50.674;4.616;2022-08-03T02:08:48;20.60;99.90
20773;DHT22;10546;50.674;4.616;2022-08-03T02:11:15;20.60;99.90
20773;DHT22;10546;50.674;4.616;2022-08-03T02:13:42;20.70;99.90
20773;DHT22;10546;50.674;4.616;2022-08-03T02:16:09;20.50;99.90
20773;DHT22;10546;50.674;4.616;2022-08-03T02:18:37;20.50;99.90
20773;DHT22;10546;50.674;4.616;2022-08-03T02:21:04;20.50;99.90
20773;DHT22;10546;50.674;4.616;2022-08-03T02:23:31;20.40;99.90
20773;DHT22;10546;50.674;4.616;2022-08-03T02:26:01;20.40;99.90
20773;DHT22;10546;50.674;4.616;2022-08-03T02:28:47;20.40;99.90
20773;DHT22;10546;50.674;4.616;2022-08-03T02:31:23;20.40;99.90
20773;DHT22;10546;50.674;4.616;2022-08-03T02:33:53;20.30;99.90
20773;DHT22;10546;50.674;4.616;2022-08-03T02:36:24;20.30;99.90
20773;DHT22;10546;50.674;4.616;2022-08-03T02:38:53;20.30;99.90
20773;DHT22;10546;50.674;4.616;2022-08-03T02:41:23;20.40;99.90
20773;DHT22;10546;50.674;4.616;2022-08-03T02:43:52;20.40;99.90
20773;DHT22;10546;50.674;4.616;2022-08-03T02:46:19;20.30;99.90
20773;DHT22;10546;50.674;4.616;2022-08-03T02:48:47;20.20;99.90
20773;DHT22;10546;50.674;4.616;2022-08-03T02:51:18;20.30;99.90
20773;DHT22;10546;50.674;4.616;2022-08-03T02:53:45;20.30;99.90
20773;DHT22;10546;50.674;4.616;2022-08-03T02:56:12;20.40;99.90
20773;DHT22;10546;50.674;4.616;2022-08-03T02:58:42;20.50;99.90
20773;DHT22;10546;50.674;4.616;2022-08-03T03:01:08;20.60;99.90
20773;DHT22;10546;50.674;4.616;2022-08-03T03:03:35;20.60;99.90
20773;DHT22;10546;50.674;4.616;2022-08-03T03:06:02;20.70;99.90
20773;DHT22;10546;50.674;4.616;2022-08-03T03:08:28;20.70;99.90
20773;DHT22;10546;50.674;4.616;2022-08-03T03:10:59;20.50;99.90
20773;DHT22;10546;50.674;4.616;2022-08-03T03:13:30;20.40;99.90
20773;DHT22;10546;50.674;4.616;2022-08-03T03:15:59;20.50;99.90
20773;DHT22;10546;50.674;4.616;2022-08-03T03:18:27;20.50;99.90
20773;DHT22;10546;50.674;4.616;2022-08-03T03:20:54;20.60;99.90
20773;DHT22;10546;50.674;4.616;2022-08-03T03:23:21;20.50;99.90
20773;DHT22;10546;50.674;4.616;2022-08-03T03:25:48;20.50;99.90
20773;DHT22;10546;50.674;4.616;2022-08-03T03:28:14;20.40;99.90
20773;DHT22;10546;50.674;4.616;2022-08-03T03:30:40;20.30;99.90
20773;DHT22;10546;50.674;4.616;2022-08-03T03:33:06;20.30;99.90
20773;DHT22;10546;50.674;4.616;2022-08-03T03:35:32;20.40;99.90
20773;DHT22;10546;50.674;4.616;2022-08-03T03:37:58;20.30;99.90
20773;DHT22;10546;50.674;4.616;2022-08-03T03:40:23;20.20;99.90
20773;DHT22;10546;50.674;4.616;2022-08-03T03:42:49;20.20;99.90
20773;DHT22;10546;50.674;4.616;2022-08-03T03:45:15;20.20;99.90
20773;DHT22;10546;50.674;4.616;2022-08-03T03:47:41;20.10;99.90
20773;DHT22;10546;50.674;4.616;2022-08-03T03:50:07;20.10;99.90
20773;DHT22;10546;50.674;4.616;2022-08-03T03:52:33;20.10;99.90
20773;DHT22;10546;50.674;4.616;2022-08-03T03:54:59;20.10;99.90
20773;DHT22;10546;50.674;4.616;2022-08-03T03:57:24;20.10;99.90
20773;DHT22;10546;50.674;4.616;2022-08-03T03:59:50;20.10;99.90
20773;DHT22;10546;50.674;4.616;2022-08-03T04:02:16;20.10;99.90
20773;DHT22;10546;50.674;4.616;2022-08-03T04:04:42;20.00;99.90
20773;DHT22;10546;50.674;4.616;2022-08-03T04:07:26;20.00;99.90
20773;DHT22;10546;50.674;4.616;2022-08-03T04:10:22;20.10;99.90
20773;DHT22;10546;50.674;4.616;2022-08-03T04:13:09;20.00;99.90
20773;DHT22;10546;50.674;4.616;2022-08-03T04:15:37;20.00;99.90
20773;DHT22;10546;50.674;4.616;2022-08-03T04:18:05;19.90;99.90
20773;DHT22;10546;50.674;4.616;2022-08-03T04:20:34;19.90;99.90
20773;DHT22;10546;50.674;4.616;2022-08-03T04:23:02;19.90;99.90
20773;DHT22;10546;50.674;4.616;2022-08-03T04:25:31;19.90;99.90
20773;DHT22;10546;50.674;4.616;2022-08-03T04:27:59;19.90;99.90
20773;DHT22;10546;50.674;4.616;2022-08-03T04:30:27;19.90;99.90
20773;DHT22;10546;50.674;4.616;2022-08-03T04:32:58;19.90;99.90
20773;DHT22;10546;50.674;4.616;2022-08-03T04:35:28;19.90;99.90
20773;DHT22;10546;50.674;4.616;2022-08-03T04:37:54;19.90;99.90
20773;DHT22;10546;50.674;4.616;2022-08-03T04:40:28;19.90;99.90
20773;DHT22;10546;50.674;4.616;2022-08-03T04:42:55;20.00;99.90
20773;DHT22;10546;50.674;4.616;2022-08-03T04:45:23;20.00;99.90
20773;DHT22;10546;50.674;4.616;2022-08-03T04:47:49;19.90;99.90
20773;DHT22;10546;50.674;4.616;2022-08-03T04:50:16;20.00;99.90
20773;DHT22;10546;50.674;4.616;2022-08-03T04:52:42;20.10;99.90
20773;DHT22;10546;50.674;4.616;2022-08-03T04:55:08;20.10;99.90
20773;DHT22;10546;50.674;4.616;2022-08-03T04:57:33;20.10;99.90
20773;DHT22;10546;50.674;4.616;2022-08-03T04:59:59;20.10;99.90
20773;DHT22;10546;50.674;4.616;2022-08-03T05:02:24;20.00;99.90
20773;DHT22;10546;50.674;4.616;2022-08-03T05:04:50;20.00;99.90
20773;DHT22;10546;50.674;4.616;2022-08-03T05:07:17;20.10;99.90
20773;DHT22;10546;50.674;4.616;2022-08-03T05:09:43;20.20;99.90
20773;DHT22;10546;50.674;4.616;2022-08-03T05:12:09;20.10;99.90
20773;DHT22;10546;50.674;4.616;2022-08-03T05:14:36;20.10;99.90
20773;DHT22;10546;50.674;4.616;2022-08-03T05:17:07;20.30;99.90
20773;DHT22;10546;50.674;4.616;2022-08-03T05:19:34;20.40;99.90
20773;DHT22;10546;50.674;4.616;2022-08-03T05:21:59;20.40;99.90
20773;DHT22;10546;50.674;4.616;2022-08-03T05:24:25;20.50;99.90
20773;DHT22;10546;50.674;4.616;2022-08-03T05:26:52;20.60;99.90
20773;DHT22;10546;50.674;4.616;2022-08-03T05:29:18;20.80;99.90
20773;DHT22;10546;50.674;4.616;2022-08-03T05:31:43;21.50;99.90
20773;DHT22;10546;50.674;4.616;2022-08-03T05:34:09;22.40;99.90
20773;DHT22;10546;50.674;4.616;2022-08-03T05:36:35;23.30;99.90
20773;DHT22;10546;50.674;4.616;2022-08-03T05:39:00;24.10;99.90
20773;DHT22;10546;50.674;4.616;2022-08-03T05:41:26;24.60;99.90
20773;DHT22;10546;50.674;4.616;2022-08-03T05:43:52;25.10;99.90
20773;DHT22;10546;50.674;4.616;2022-08-03T05:46:18;25.60;99.90
20773;DHT22;10546;50.674;4.616;2022-08-03T05:48:45;26.10;99.90
20773;DHT22;10546;50.674;4.616;2022-08-03T05:51:11;26.40;99.90
20773;DHT22;10546;50.674;4.616;2022-08-03T05:53:37;27.00;99.90
20773;DHT22;10546;50.674;4.616;2022-08-03T05:56:03;27.50;99.90
20773;DHT22;10546;50.674;4.616;2022-08-03T05:58:28;27.80;99.90
20773;DHT22;10546;50.674;4.616;2022-08-03T06:00:55;28.10;99.90
20773;DHT22;10546;50.674;4.616;2022-08-03T06:03:20;28.90;99.90
20773;DHT22;10546;50.674;4.616;2022-08-03T06:05:46;28.90;99.90
20773;DHT22;10546;50.674;4.616;2022-08-03T06:08:12;29.30;99.90
20773;DHT22;10546;50.674;4.616;2022-08-03T06:10:37;29.60;99.90
20773;DHT22;10546;50.674;4.616;2022-08-03T06:13:03;29.90;99.90
20773;DHT22;10546;50.674;4.616;2022-08-03T06:15:29;30.10;99.90
20773;DHT22;10546;50.674;4.616;2022-08-03T06:17:57;30.00;99.90
20773;DHT22;10546;50.674;4.616;2022-08-03T06:20:23;30.20;99.90
20773;DHT22;10546;50.674;4.616;2022-08-03T06:22:49;30.70;99.90
20773;DHT22;10546;50.674;4.616;2022-08-03T06:25:15;31.00;99.90
20773;DHT22;10546;50.674;4.616;2022-08-03T06:27:41;30.90;99.90
20773;DHT22;10546;50.674;4.616;2022-08-03T06:30:08;31.10;99.90
20773;DHT22;10546;50.674;4.616;2022-08-03T06:32:36;31.50;99.90
20773;DHT22;10546;50.674;4.616;2022-08-03T06:35:02;31.80;99.90
20773;DHT22;10546;50.674;4.616;2022-08-03T06:37:28;31.40;99.90
20773;DHT22;10546;50.674;4.616;2022-08-03T06:39:53;31.40;99.90
20773;DHT22;10546;50.674;4.616;2022-08-03T06:42:19;31.30;99.90
20773;DHT22;10546;50.674;4.616;2022-08-03T06:44:45;31.50;99.90
20773;DHT22;10546;50.674;4.616;2022-08-03T06:47:10;31.40;99.90
20773;DHT22;10546;50.674;4.616;2022-08-03T06:49:36;31.50;99.90
20773;DHT22;10546;50.674;4.616;2022-08-03T06:52:02;31.90;99.90
20773;DHT22;10546;50.674;4.616;2022-08-03T06:54:28;32.10;99.90
20773;DHT22;10546;50.674;4.616;2022-08-03T06:56:54;32.20;99.90
20773;DHT22;10546;50.674;4.616;2022-08-03T06:59:20;32.60;99.90
20773;DHT22;10546;50.674;4.616;2022-08-03T07:01:46;32.70;99.60
20773;DHT22;10546;50.674;4.616;2022-08-03T07:04:11;33.50;98.80
20773;DHT22;10546;50.674;4.616;2022-08-03T07:06:37;33.90;98.10
20773;DHT22;10546;50.674;4.616;2022-08-03T07:09:03;34.00;97.70
20773;DHT22;10546;50.674;4.616;2022-08-03T07:11:29;34.20;97.00
20773;DHT22;10546;50.674;4.616;2022-08-03T07:13:55;34.20;96.50
20773;DHT22;10546;50.674;4.616;2022-08-03T07:16:21;34.30;96.50
20773;DHT22;10546;50.674;4.616;2022-08-03T07:18:47;34.20;96.00
20773;DHT22;10546;50.674;4.616;2022-08-03T07:21:12;33.70;95.50
20773;DHT22;10546;50.674;4.616;2022-08-03T07:23:40;33.80;95.40
20773;DHT22;10546;50.674;4.616;2022-08-03T07:26:06;33.60;95.50
20773;DHT22;10546;50.674;4.616;2022-08-03T07:28:31;33.70;95.40
20773;DHT22;10546;50.674;4.616;2022-08-03T07:30:57;33.70;95.40
20773;DHT22;10546;50.674;4.616;2022-08-03T07:33:23;33.80;95.00
20773;DHT22;10546;50.674;4.616;2022-08-03T07:35:49;34.30;94.70
20773;DHT22;10546;50.674;4.616;2022-08-03T07:38:15;34.30;94.50
20773;DHT22;10546;50.674;4.616;2022-08-03T07:40:41;34.50;94.10
20773;DHT22;10546;50.674;4.616;2022-08-03T07:43:06;34.80;93.80
20773;DHT22;10546;50.674;4.616;2022-08-03T07:45:32;35.50;93.20
20773;DHT22;10546;50.674;4.616;2022-08-03T07:47:58;35.50;92.80
20773;DHT22;10546;50.674;4.616;2022-08-03T07:50:25;35.70;92.60
20773;DHT22;10546;50.674;4.616;2022-08-03T07:52:51;35.90;92.10
20773;DHT22;10546;50.674;4.616;2022-08-03T07:55:20;36.30;91.70
20773;DHT22;10546;50.674;4.616;2022-08-03T07:57:46;36.10;91.30
20773;DHT22;10546;50.674;4.616;2022-08-03T08:00:17;36.30;91.50
20773;DHT22;10546;50.674;4.616;2022-08-03T08:02:44;36.90;90.50
20773;DHT22;10546;50.674;4.616;2022-08-03T08:05:10;36.90;89.70
20773;DHT22;10546;50.674;4.616;2022-08-03T08:07:37;37.20;89.80
20773;DHT22;10546;50.674;4.616;2022-08-03T08:10:07;37.20;89.40
20773;DHT22;10546;50.674;4.616;2022-08-03T08:12:34;37.60;88.00
20773;DHT22;10546;50.674;4.616;2022-08-03T08:15:00;37.30;87.10
20773;DHT22;10546;50.674;4.616;2022-08-03T08:17:26;37.10;87.20
20773;DHT22;10546;50.674;4.616;2022-08-03T08:19:52;37.10;86.70
20773;DHT22;10546;50.674;4.616;2022-08-03T08:22:18;37.20;85.50
20773;DHT22;10546;50.674;4.616;2022-08-03T08:24:44;37.50;84.30
20773;DHT22;10546;50.674;4.616;2022-08-03T08:27:09;37.20;84.30
20773;DHT22;10546;50.674;4.616;2022-08-03T08:29:37;37.30;84.10
20773;DHT22;10546;50.674;4.616;2022-08-03T08:32:04;37.50;83.70
20773;DHT22;10546;50.674;4.616;2022-08-03T08:34:29;38.10;83.10
20773;DHT22;10546;50.674;4.616;2022-08-03T08:36:55;38.20;81.90
20773;DHT22;10546;50.674;4.616;2022-08-03T08:39:22;38.30;82.00
20773;DHT22;10546;50.674;4.616;2022-08-03T08:41:50;38.60;79.90
20773;DHT22;10546;50.674;4.616;2022-08-03T08:44:16;38.20;79.80
20773;DHT22;10546;50.674;4.616;2022-08-03T08:46:43;37.40;80.20
20773;DHT22;10546;50.674;4.616;2022-08-03T08:49:09;38.30;79.50
20773;DHT22;10546;50.674;4.616;2022-08-03T08:51:38;38.50;79.00
20773;DHT22;10546;50.674;4.616;2022-08-03T08:54:06;38.40;78.40
20773;DHT22;10546;50.674;4.616;2022-08-03T08:56:32;38.50;78.20
20773;DHT22;10546;50.674;4.616;2022-08-03T08:58:59;38.70;77.80
20773;DHT22;10546;50.674;4.616;2022-08-03T09:01:26;39.40;75.70
20773;DHT22;10546;50.674;4.616;2022-08-03T09:03:52;39.20;74.70
20773;DHT22;10546;50.674;4.616;2022-08-03T09:06:19;39.30;74.70
20773;DHT22;10546;50.674;4.616;2022-08-03T09:08:44;39.00;74.30
20773;DHT22;10546;50.674;4.616;2022-08-03T09:11:10;39.10;74.00
20773;DHT22;10546;50.674;4.616;2022-08-03T09:13:36;39.40;74.00
20773;DHT22;10546;50.674;4.616;2022-08-03T09:16:18;40.40;72.40
20773;DHT22;10546;50.674;4.616;2022-08-03T09:18:47;40.30;71.60
20773;DHT22;10546;50.674;4.616;2022-08-03T09:21:21;40.20;71.50
20773;DHT22;10546;50.674;4.616;2022-08-03T09:23:52;39.90;70.60
20773;DHT22;10546;50.674;4.616;2022-08-03T09:26:23;40.10;71.70
20773;DHT22;10546;50.674;4.616;2022-08-03T09:31:40;40.80;69.40
20773;DHT22;10546;50.674;4.616;2022-08-03T09:34:07;41.70;68.40
20773;DHT22;10546;50.674;4.616;2022-08-03T09:36:40;42.00;67.30
20773;DHT22;10546;50.674;4.616;2022-08-03T09:39:08;40.90;66.80
20773;DHT22;10546;50.674;4.616;2022-08-03T09:41:39;40.40;67.80
20773;DHT22;10546;50.674;4.616;2022-08-03T09:44:05;41.30;67.80
20773;DHT22;10546;50.674;4.616;2022-08-03T09:46:31;40.60;68.00
20773;DHT22;10546;50.674;4.616;2022-08-03T09:49:12;41.10;66.70
20773;DHT22;10546;50.674;4.616;2022-08-03T09:51:38;41.40;66.20
20773;DHT22;10546;50.674;4.616;2022-08-03T09:54:05;42.20;65.40
20773;DHT22;10546;50.674;4.616;2022-08-03T09:59:07;42.00;64.10
20773;DHT22;10546;50.674;4.616;2022-08-03T10:01:34;42.50;63.80
20773;DHT22;10546;50.674;4.616;2022-08-03T10:04:03;41.60;64.50
20773;DHT22;10546;50.674;4.616;2022-08-03T10:06:28;40.50;65.20
20773;DHT22;10546;50.674;4.616;2022-08-03T10:09:11;41.40;65.40
20773;DHT22;10546;50.674;4.616;2022-08-03T10:11:38;40.70;65.20
20773;DHT22;10546;50.674;4.616;2022-08-03T10:14:06;40.80;65.50
20773;DHT22;10546;50.674;4.616;2022-08-03T10:16:39;40.90;64.70
20773;DHT22;10546;50.674;4.616;2022-08-03T10:19:06;40.80;65.20
20773;DHT22;10546;50.674;4.616;2022-08-03T10:21:36;41.00;65.40
20773;DHT22;10546;50.674;4.616;2022-08-03T10:24:05;40.50;65.10
20773;DHT22;10546;50.674;4.616;2022-08-03T10:26:35;41.10;65.30
20773;DHT22;10546;50.674;4.616;2022-08-03T10:29:06;40.60;64.40
20773;DHT22;10546;50.674;4.616;2022-08-03T10:31:41;40.50;65.40
20773;DHT22;10546;50.674;4.616;2022-08-03T10:34:21;41.00;64.80
20773;DHT22;10546;50.674;4.616;2022-08-03T10:36:48;41.60;64.40
20773;DHT22;10546;50.674;4.616;2022-08-03T10:39:18;42.20;63.50
20773;DHT22;10546;50.674;4.616;2022-08-03T10:41:44;42.00;64.20
20773;DHT22;10546;50.674;4.616;2022-08-03T10:44:19;41.80;63.70
20773;DHT22;10546;50.674;4.616;2022-08-03T10:46:46;40.80;63.90
20773;DHT22;10546;50.674;4.616;2022-08-03T10:49:18;40.30;64.30
20773;DHT22;10546;50.674;4.616;2022-08-03T10:51:45;40.00;65.10
20773;DHT22;10546;50.674;4.616;2022-08-03T10:54:41;40.00;65.20
20773;DHT22;10546;50.674;4.616;2022-08-03T10:57:57;40.20;65.00
20773;DHT22;10546;50.674;4.616;2022-08-03T11:00:26;40.80;64.30
20773;DHT22;10546;50.674;4.616;2022-08-03T11:03:08;40.30;64.60
20773;DHT22;10546;50.674;4.616;2022-08-03T11:05:40;40.30;64.60
20773;DHT22;10546;50.674;4.616;2022-08-03T11:08:31;39.70;65.90
20773;DHT22;10546;50.674;4.616;2022-08-03T11:13:57;40.00;65.50
20773;DHT22;10546;50.674;4.616;2022-08-03T11:16:25;39.30;66.00
20773;DHT22;10546;50.674;4.616;2022-08-03T11:18:59;39.70;65.60
20773;DHT22;10546;50.674;4.616;2022-08-03T11:27:20;38.50;66.60
20773;DHT22;10546;50.674;4.616;2022-08-03T11:30:11;38.50;66.60
20773;DHT22;10546;50.674;4.616;2022-08-03T11:43:05;37.70;68.60
20773;DHT22;10546;50.674;4.616;2022-08-03T11:45:31;37.80;67.10
20773;DHT22;10546;50.674;4.616;2022-08-03T11:48:01;37.70;67.70
20773;DHT22;10546;50.674;4.616;2022-08-03T11:50:35;37.80;67.90
20773;DHT22;10546;50.674;4.616;2022-08-03T11:53:02;37.60;67.40
20773;DHT22;10546;50.674;4.616;2022-08-03T11:55:29;37.40;68.20
20773;DHT22;10546;50.674;4.616;2022-08-03T11:57:58;37.60;68.10
20773;DHT22;10546;50.674;4.616;2022-08-03T12:00:29;37.10;68.60
20773;DHT22;10546;50.674;4.616;2022-08-03T12:03:00;36.60;68.50
20773;DHT22;10546;50.674;4.616;2022-08-03T12:07:58;36.60;68.00
20773;DHT22;10546;50.674;4.616;2022-08-03T12:10:24;37.00;69.40
20773;DHT22;10546;50.674;4.616;2022-08-03T12:12:55;37.10;67.90
20773;DHT22;10546;50.674;4.616;2022-08-03T12:15:29;36.90;68.10
20773;DHT22;10546;50.674;4.616;2022-08-03T12:17:56;36.30;68.90
20773;DHT22;10546;50.674;4.616;2022-08-03T12:20:28;36.20;68.30
20773;DHT22;10546;50.674;4.616;2022-08-03T12:22:57;36.00;70.20
20773;DHT22;10546;50.674;4.616;2022-08-03T12:25:26;36.50;69.50
20773;DHT22;10546;50.674;4.616;2022-08-03T12:27:53;36.80;68.70
20773;DHT22;10546;50.674;4.616;2022-08-03T12:30:19;37.00;69.80
20773;DHT22;10546;50.674;4.616;2022-08-03T12:32:45;37.30;68.60
20773;DHT22;10546;50.674;4.616;2022-08-03T12:35:21;37.70;67.50
20773;DHT22;10546;50.674;4.616;2022-08-03T12:37:50;38.00;68.60
20773;DHT22;10546;50.674;4.616;2022-08-03T12:40:24;37.70;66.80
20773;DHT22;10546;50.674;4.616;2022-08-03T12:42:51;37.60;67.30
20773;DHT22;10546;50.674;4.616;2022-08-03T12:45:28;37.70;67.90
20773;DHT22;10546;50.674;4.616;2022-08-03T12:47:58;37.80;66.90
20773;DHT22;10546;50.674;4.616;2022-08-03T12:50:35;37.80;67.30
20773;DHT22;10546;50.674;4.616;2022-08-03T12:53:04;37.70;67.30
20773;DHT22;10546;50.674;4.616;2022-08-03T12:55:30;37.40;66.80
20773;DHT22;10546;50.674;4.616;2022-08-03T12:58:00;37.00;67.00
20773;DHT22;10546;50.674;4.616;2022-08-03T13:00:27;36.50;67.60
20773;DHT22;10546;50.674;4.616;2022-08-03T13:03:05;37.00;66.90
20773;DHT22;10546;50.674;4.616;2022-08-03T13:05:42;37.10;67.90
20773;DHT22;10546;50.674;4.616;2022-08-03T13:08:25;37.00;66.50
20773;DHT22;10546;50.674;4.616;2022-08-03T13:10:51;36.40;67.80
20773;DHT22;10546;50.674;4.616;2022-08-03T13:13:16;35.90;68.10
20773;DHT22;10546;50.674;4.616;2022-08-03T13:15:44;36.20;68.40
20773;DHT22;10546;50.674;4.616;2022-08-03T13:18:10;36.20;67.90
20773;DHT22;10546;50.674;4.616;2022-08-03T13:20:36;36.30;67.50
20773;DHT22;10546;50.674;4.616;2022-08-03T13:23:01;36.50;67.50
20773;DHT22;10546;50.674;4.616;2022-08-03T13:25:27;36.90;67.00
20773;DHT22;10546;50.674;4.616;2022-08-03T13:27:52;36.90;67.10
20773;DHT22;10546;50.674;4.616;2022-08-03T13:30:18;36.80;67.00
20773;DHT22;10546;50.674;4.616;2022-08-03T13:32:44;36.90;64.80
20773;DHT22;10546;50.674;4.616;2022-08-03T13:35:09;36.90;65.10
20773;DHT22;10546;50.674;4.616;2022-08-03T13:37:36;36.80;64.20
20773;DHT22;10546;50.674;4.616;2022-08-03T13:40:04;36.60;65.10
20773;DHT22;10546;50.674;4.616;2022-08-03T13:42:31;36.60;66.30
20773;DHT22;10546;50.674;4.616;2022-08-03T13:44:58;36.50;66.50
20773;DHT22;10546;50.674;4.616;2022-08-03T13:47:23;36.60;66.30
20773;DHT22;10546;50.674;4.616;2022-08-03T13:49:49;36.40;66.30
20773;DHT22;10546;50.674;4.616;2022-08-03T13:52:18;36.00;66.70
20773;DHT22;10546;50.674;4.616;2022-08-03T13:54:44;35.70;67.60
20773;DHT22;10546;50.674;4.616;2022-08-03T13:57:09;35.60;67.50
20773;DHT22;10546;50.674;4.616;2022-08-03T13:59:36;35.60;67.60
20773;DHT22;10546;50.674;4.616;2022-08-03T14:02:01;35.60;67.50
20773;DHT22;10546;50.674;4.616;2022-08-03T14:04:27;35.20;68.00
20773;DHT22;10546;50.674;4.616;2022-08-03T14:06:53;35.20;68.00
20773;DHT22;10546;50.674;4.616;2022-08-03T14:09:18;35.20;67.50
20773;DHT22;10546;50.674;4.616;2022-08-03T14:11:44;35.10;68.20
20773;DHT22;10546;50.674;4.616;2022-08-03T14:14:10;35.10;68.40
20773;DHT22;10546;50.674;4.616;2022-08-03T14:16:36;35.20;68.40
20773;DHT22;10546;50.674;4.616;2022-08-03T14:19:02;35.50;69.10
20773;DHT22;10546;50.674;4.616;2022-08-03T14:21:28;35.60;67.30
20773;DHT22;10546;50.674;4.616;2022-08-03T14:23:54;36.00;67.40
20773;DHT22;10546;50.674;4.616;2022-08-03T14:26:21;36.20;66.40
20773;DHT22;10546;50.674;4.616;2022-08-03T14:28:46;36.20;67.00
20773;DHT22;10546;50.674;4.616;2022-08-03T14:31:12;36.30;67.30
20773;DHT22;10546;50.674;4.616;2022-08-03T14:33:38;36.20;66.90
20773;DHT22;10546;50.674;4.616;2022-08-03T14:36:04;36.20;66.40
20773;DHT22;10546;50.674;4.616;2022-08-03T14:38:29;35.70;66.80
20773;DHT22;10546;50.674;4.616;2022-08-03T14:40:55;35.50;67.60
20773;DHT22;10546;50.674;4.616;2022-08-03T14:43:21;35.80;67.90
20773;DHT22;10546;50.674;4.616;2022-08-03T14:45:51;36.00;68.40
20773;DHT22;10546;50.674;4.616;2022-08-03T14:48:18;36.10;67.90
20773;DHT22;10546;50.674;4.616;2022-08-03T14:50:44;35.80;66.50
20773;DHT22;10546;50.674;4.616;2022-08-03T14:53:10;35.30;67.10
20773;DHT22;10546;50.674;4.616;2022-08-03T14:55:35;35.10;67.90
20773;DHT22;10546;50.674;4.616;2022-08-03T14:58:01;34.80;68.60
20773;DHT22;10546;50.674;4.616;2022-08-03T15:00:31;34.80;68.20
20773;DHT22;10546;50.674;4.616;2022-08-03T15:02:57;34.80;69.30
20773;DHT22;10546;50.674;4.616;2022-08-03T15:05:23;34.80;68.60
20773;DHT22;10546;50.674;4.616;2022-08-03T15:07:48;34.70;70.80
20773;DHT22;10546;50.674;4.616;2022-08-03T15:10:14;34.80;69.10
20773;DHT22;10546;50.674;4.616;2022-08-03T15:12:40;35.00;67.80
20773;DHT22;10546;50.674;4.616;2022-08-03T15:15:06;35.00;67.70
20773;DHT22;10546;50.674;4.616;2022-08-03T15:17:31;35.00;68.20
20773;DHT22;10546;50.674;4.616;2022-08-03T15:19:57;35.10;67.60
20773;DHT22;10546;50.674;4.616;2022-08-03T15:22:22;35.30;69.70
20773;DHT22;10546;50.674;4.616;2022-08-03T15:24:48;35.70;67.80
20773;DHT22;10546;50.674;4.616;2022-08-03T15:27:14;35.90;68.00
20773;DHT22;10546;50.674;4.616;2022-08-03T15:29:40;35.60;67.70
20773;DHT22;10546;50.674;4.616;2022-08-03T15:32:05;35.80;67.70
20773;DHT22;10546;50.674;4.616;2022-08-03T15:34:31;35.30;68.60
20773;DHT22;10546;50.674;4.616;2022-08-03T15:36:57;35.30;69.00
20773;DHT22;10546;50.674;4.616;2022-08-03T15:39:22;35.30;69.10
20773;DHT22;10546;50.674;4.616;2022-08-03T15:41:48;35.00;69.30
20773;DHT22;10546;50.674;4.616;2022-08-03T15:44:17;35.10;68.10
20773;DHT22;10546;50.674;4.616;2022-08-03T15:46:43;35.00;68.40
20773;DHT22;10546;50.674;4.616;2022-08-03T15:49:09;35.00;69.10
20773;DHT22;10546;50.674;4.616;2022-08-03T15:51:34;35.10;68.10
20773;DHT22;10546;50.674;4.616;2022-08-03T15:54:01;34.80;68.60
20773;DHT22;10546;50.674;4.616;2022-08-03T15:56:26;34.70;69.30
20773;DHT22;10546;50.674;4.616;2022-08-03T15:58:52;34.60;70.00
20773;DHT22;10546;50.674;4.616;2022-08-03T16:01:17;34.50;70.60
20773;DHT22;10546;50.674;4.616;2022-08-03T16:03:45;34.50;69.60
20773;DHT22;10546;50.674;4.616;2022-08-03T16:06:11;34.60;70.00
20773;DHT22;10546;50.674;4.616;2022-08-03T16:08:37;34.60;70.10